sensor_id;sensor_type;location;lat;lon;timestamp;pressure;altitude;pressure_sealevel;temperature;humidity
54882;BME280;40775;51.448;4.742;2023-07-24T00:00:34;100467.09;;;19.28;100.00
54882;BME280;40775;51.448;4.742;2023-07-24T00:03:02;100463.59;;;19.26;100.00
54882;BME280;40775;51.448;4.742;2023-07-24T00:05:31;100467.16;;;19.25;100.00
54882;BME280;40775;51.448;4.742;2023-07-24T00:07:58;100474.25;;;19.26;100.00
54882;BME280;40775;51.448;4.742;2023-07-24T00:10:25;100469.88;;;19.24;100.00
54882;BME280;40775;51.448;4.742;2023-07-24T00:12:52;100461.88;;;19.24;100.00
54882;BME280;40775;51.448;4.742;2023-07-24T00:15:19;100451.31;;;19.21;100.00
54882;BME280;40775;51.448;4.742;2023-07-24T00:17:46;100445.03;;;19.23;100.00
54882;BME280;40775;51.448;4.742;2023-07-24T00:20:13;100453.13;;;19.19;100.00
54882;BME280;40775;51.448;4.742;2023-07-24T00:22:40;100445.16;;;19.17;100.00
54882;BME280;40775;51.448;4.742;2023-07-24T00:25:07;100450.47;;;19.17;100.00
54882;BME280;40775;51.448;4.742;2023-07-24T00:27:36;100450.47;;;19.19;100.00
54882;BME280;40775;51.448;4.742;2023-07-24T00:30:03;100443.28;;;19.22;100.00
54882;BME280;40775;51.448;4.742;2023-07-24T00:32:30;100434.47;;;19.20;100.00
54882;BME280;40775;51.448;4.742;2023-07-24T00:34:57;100435.31;;;19.22;100.00
54882;BME280;40775;51.448;4.742;2023-07-24T00:37:24;100437.09;;;19.22;100.00
54882;BME280;40775;51.448;4.742;2023-07-24T00:39:51;100439.75;;;19.22;100.00
54882;BME280;40775;51.448;4.742;2023-07-24T00:42:18;100440.69;;;19.19;100.00
54882;BME280;40775;51.448;4.742;2023-07-24T00:44:45;100433.63;;;19.18;100.00
54882;BME280;40775;51.448;4.742;2023-07-24T00:47:12;100436.25;;;19.20;100.00
54882;BME280;40775;51.448;4.742;2023-07-24T00:49:40;100433.56;;;19.21;100.00
54882;BME280;40775;51.448;4.742;2023-07-24T00:52:07;100432.66;;;19.22;100.00
54882;BME280;40775;51.448;4.742;2023-07-24T00:54:35;100424.69;;;19.21;100.00
54882;BME280;40775;51.448;4.742;2023-07-24T00:57:03;100424.69;;;19.21;100.00
54882;BME280;40775;51.448;4.742;2023-07-24T00:59:32;100422.97;;;19.18;100.00
54882;BME280;40775;51.448;4.742;2023-07-24T01:01:59;100432.72;;;19.19;100.00
54882;BME280;40775;51.448;4.742;2023-07-24T01:04:26;100425.59;;;19.20;100.00
54882;BME280;40775;51.448;4.742;2023-07-24T01:06:55;100414.13;;;19.16;100.00
54882;BME280;40775;51.448;4.742;2023-07-24T01:09:22;100418.53;;;19.19;100.00
54882;BME280;40775;51.448;4.742;2023-07-24T01:15:13;100419.44;;;19.16;100.00
54882;BME280;40775;51.448;4.742;2023-07-24T01:17:48;100419.50;;;19.13;100.00
54882;BME280;40775;51.448;4.742;2023-07-24T01:20:17;100413.22;;;19.17;100.00
54882;BME280;40775;51.448;4.742;2023-07-24T01:23:13;100418.63;;;19.12;100.00
54882;BME280;40775;51.448;4.742;2023-07-24T01:25:59;100405.34;;;19.12;100.00
54882;BME280;40775;51.448;4.742;2023-07-24T01:28:26;100396.47;;;19.12;100.00
54882;BME280;40775;51.448;4.742;2023-07-24T01:30:54;100392.00;;;19.14;100.00
54882;BME280;40775;51.448;4.742;2023-07-24T01:33:22;100388.47;;;19.13;100.00
54882;BME280;40775;51.448;4.742;2023-07-24T01:36:00;100381.41;;;19.11;100.00
54882;BME280;40775;51.448;4.742;2023-07-24T01:38:28;100374.38;;;19.08;100.00
54882;BME280;40775;51.448;4.742;2023-07-24T01:40:57;100382.25;;;19.13;100.00
54882;BME280;40775;51.448;4.742;2023-07-24T01:43:25;100375.19;;;19.12;100.00
54882;BME280;40775;51.448;4.742;2023-07-24T01:45:54;100370.84;;;19.08;100.00
54882;BME280;40775;51.448;4.742;2023-07-24T01:48:21;100373.47;;;19.09;100.00
54882;BME280;40775;51.448;4.742;2023-07-24T01:50:48;100371.72;;;19.08;100.00
54882;BME280;40775;51.448;4.742;2023-07-24T01:53:15;100377.00;;;19.10;100.00
54882;BME280;40775;51.448;4.742;2023-07-24T01:55:42;100368.16;;;19.09;100.00
54882;BME280;40775;51.448;4.742;2023-07-24T01:58:09;100368.19;;;19.08;100.00
54882;BME280;40775;51.448;4.742;2023-07-24T02:00:36;100357.59;;;19.06;100.00
54882;BME280;40775;51.448;4.742;2023-07-24T02:03:03;100362.94;;;19.05;100.00
54882;BME280;40775;51.448;4.742;2023-07-24T02:05:30;100363.78;;;19.07;100.00
54882;BME280;40775;51.448;4.742;2023-07-24T02:07:57;100369.16;;;19.04;100.00
54882;BME280;40775;51.448;4.742;2023-07-24T02:10:24;100368.25;;;19.05;100.00
54882;BME280;40775;51.448;4.742;2023-07-24T02:12:51;100377.09;;;19.07;100.00
54882;BME280;40775;51.448;4.742;2023-07-24T02:15:18;100375.41;;;19.03;100.00
54882;BME280;40775;51.448;4.742;2023-07-24T02:17:45;100381.63;;;19.02;100.00
54882;BME280;40775;51.448;4.742;2023-07-24T02:20:12;100369.94;;;19.09;100.00
54882;BME280;40775;51.448;4.742;2023-07-24T02:22:39;100365.69;;;19.02;100.00
54882;BME280;40775;51.448;4.742;2023-07-24T02:25:06;100351.56;;;18.98;100.00
54882;BME280;40775;51.448;4.742;2023-07-24T02:27:33;100351.53;;;19.00;100.00
54882;BME280;40775;51.448;4.742;2023-07-24T02:30:02;100356.88;;;18.98;100.00
54882;BME280;40775;51.448;4.742;2023-07-24T02:32:29;100363.13;;;18.97;100.00
54882;BME280;40775;51.448;4.742;2023-07-24T02:34:56;100368.50;;;18.94;100.00
54882;BME280;40775;51.448;4.742;2023-07-24T02:37:23;100359.69;;;18.92;100.00
54882;BME280;40775;51.448;4.742;2023-07-24T02:39:52;100357.03;;;18.92;100.00
54882;BME280;40775;51.448;4.742;2023-07-24T02:42:20;100363.38;;;18.85;100.00
54882;BME280;40775;51.448;4.742;2023-07-24T02:44:47;100367.81;;;18.84;100.00
54882;BME280;40775;51.448;4.742;2023-07-24T02:47:14;100362.50;;;18.84;100.00
54882;BME280;40775;51.448;4.742;2023-07-24T02:49:41;100350.97;;;18.84;100.00
54882;BME280;40775;51.448;4.742;2023-07-24T02:52:08;100350.13;;;18.82;100.00
54882;BME280;40775;51.448;4.742;2023-07-24T02:54:35;100346.66;;;18.78;100.00
54882;BME280;40775;51.448;4.742;2023-07-24T02:57:02;100358.28;;;18.74;100.00
54882;BME280;40775;51.448;4.742;2023-07-24T02:59:29;100345.00;;;18.74;100.00
54882;BME280;40775;51.448;4.742;2023-07-24T03:01:58;100348.59;;;18.72;100.00
54882;BME280;40775;51.448;4.742;2023-07-24T03:04:26;100354.84;;;18.69;100.00
54882;BME280;40775;51.448;4.742;2023-07-24T03:06:52;100352.28;;;18.65;100.00
54882;BME280;40775;51.448;4.742;2023-07-24T03:09:19;100345.22;;;18.64;100.00
54882;BME280;40775;51.448;4.742;2023-07-24T03:11:46;100336.38;;;18.60;100.00
54882;BME280;40775;51.448;4.742;2023-07-24T03:14:13;100329.28;;;18.61;100.00
54882;BME280;40775;51.448;4.742;2023-07-24T03:16:40;100331.13;;;18.57;100.00
54882;BME280;40775;51.448;4.742;2023-07-24T03:19:07;100339.22;;;18.51;100.00
54882;BME280;40775;51.448;4.742;2023-07-24T03:21:34;100344.63;;;18.48;100.00
54882;BME280;40775;51.448;4.742;2023-07-24T03:24:01;100339.22;;;18.51;100.00
54882;BME280;40775;51.448;4.742;2023-07-24T03:26:28;100336.72;;;18.43;100.00
54882;BME280;40775;51.448;4.742;2023-07-24T03:28:55;100332.22;;;18.47;100.00
54882;BME280;40775;51.448;4.742;2023-07-24T03:31:22;100323.41;;;18.45;100.00
54882;BME280;40775;51.448;4.742;2023-07-24T03:33:49;100320.69;;;18.48;100.00
54882;BME280;40775;51.448;4.742;2023-07-24T03:36:16;100320.84;;;18.40;100.00
54882;BME280;40775;51.448;4.742;2023-07-24T03:38:43;100315.63;;;18.34;100.00
54882;BME280;40775;51.448;4.742;2023-07-24T03:41:10;100331.59;;;18.36;100.00
54882;BME280;40775;51.448;4.742;2023-07-24T03:43:37;100335.16;;;18.33;100.00
54882;BME280;40775;51.448;4.742;2023-07-24T03:46:04;100346.66;;;18.35;100.00
54882;BME280;40775;51.448;4.742;2023-07-24T03:48:31;100334.28;;;18.33;100.00
54882;BME280;40775;51.448;4.742;2023-07-24T03:50:59;100338.75;;;18.31;100.00
54882;BME280;40775;51.448;4.742;2023-07-24T03:53:27;100332.59;;;18.29;100.00
54882;BME280;40775;51.448;4.742;2023-07-24T03:55:54;100343.22;;;18.29;100.00
54882;BME280;40775;51.448;4.742;2023-07-24T03:58:21;100336.16;;;18.28;100.00
54882;BME280;40775;51.448;4.742;2023-07-24T04:00:48;100346.81;;;18.26;100.00
54882;BME280;40775;51.448;4.742;2023-07-24T04:03:16;100337.09;;;18.25;100.00
54882;BME280;40775;51.448;4.742;2023-07-24T04:05:44;100332.72;;;18.22;100.00
54882;BME280;40775;51.448;4.742;2023-07-24T04:08:15;100325.63;;;18.21;100.00
54882;BME280;40775;51.448;4.742;2023-07-24T04:10:42;100330.13;;;18.19;100.00
54882;BME280;40775;51.448;4.742;2023-07-24T04:13:08;100331.94;;;18.17;100.00
54882;BME280;40775;51.448;4.742;2023-07-24T04:15:35;100332.84;;;18.16;100.00
54882;BME280;40775;51.448;4.742;2023-07-24T04:18:03;100327.50;;;18.16;100.00
54882;BME280;40775;51.448;4.742;2023-07-24T04:20:30;100337.28;;;18.16;100.00
54882;BME280;40775;51.448;4.742;2023-07-24T04:22:57;100336.34;;;18.18;100.00
54882;BME280;40775;51.448;4.742;2023-07-24T04:25:24;100328.53;;;18.09;100.00
54882;BME280;40775;51.448;4.742;2023-07-24T04:27:51;100329.38;;;18.11;100.00
54882;BME280;40775;51.448;4.742;2023-07-24T04:30:18;100334.78;;;18.05;100.00
54882;BME280;40775;51.448;4.742;2023-07-24T04:32:45;100323.34;;;18.02;100.00
54882;BME280;40775;51.448;4.742;2023-07-24T04:35:13;100329.66;;;17.96;100.00
54882;BME280;40775;51.448;4.742;2023-07-24T04:37:40;100326.84;;;18.04;100.00
54882;BME280;40775;51.448;4.742;2023-07-24T04:40:07;100322.53;;;17.98;100.00
54882;BME280;40775;51.448;4.742;2023-07-24T04:42:35;100326.91;;;18.01;100.00
54882;BME280;40775;51.448;4.742;2023-07-24T04:45:03;100333.16;;;17.98;100.00
54882;BME280;40775;51.448;4.742;2023-07-24T04:47:30;100331.41;;;17.97;100.00
54882;BME280;40775;51.448;4.742;2023-07-24T04:49:57;100334.09;;;17.96;100.00
54882;BME280;40775;51.448;4.742;2023-07-24T04:52:24;100331.47;;;17.94;100.00
54882;BME280;40775;51.448;4.742;2023-07-24T04:54:51;100326.16;;;17.94;100.00
54882;BME280;40775;51.448;4.742;2023-07-24T04:57:18;100324.38;;;17.95;100.00
54882;BME280;40775;51.448;4.742;2023-07-24T04:59:45;100324.47;;;17.90;100.00
54882;BME280;40775;51.448;4.742;2023-07-24T05:02:13;100331.53;;;17.91;100.00
54882;BME280;40775;51.448;4.742;2023-07-24T05:04:40;100335.06;;;17.91;100.00
54882;BME280;40775;51.448;4.742;2023-07-24T05:07:08;100334.09;;;17.96;100.00
54882;BME280;40775;51.448;4.742;2023-07-24T05:09:35;100332.41;;;17.91;100.00
54882;BME280;40775;51.448;4.742;2023-07-24T05:12:02;100322.53;;;17.98;100.00
54882;BME280;40775;51.448;4.742;2023-07-24T05:14:29;100331.41;;;17.97;100.00
54882;BME280;40775;51.448;4.742;2023-07-24T05:16:56;100334.94;;;17.98;100.00
54882;BME280;40775;51.448;4.742;2023-07-24T05:19:23;100334.94;;;17.98;100.00
54882;BME280;40775;51.448;4.742;2023-07-24T05:21:50;100342.03;;;17.97;100.00
54882;BME280;40775;51.448;4.742;2023-07-24T05:24:17;100352.59;;;18.00;100.00
54882;BME280;40775;51.448;4.742;2023-07-24T05:26:44;100357.84;;;18.03;100.00
54882;BME280;40775;51.448;4.742;2023-07-24T05:29:11;100357.84;;;18.03;100.00
54882;BME280;40775;51.448;4.742;2023-07-24T05:31:38;100357.84;;;18.03;100.00
54882;BME280;40775;51.448;4.742;2023-07-24T05:34:05;100353.38;;;18.05;100.00
54882;BME280;40775;51.448;4.742;2023-07-24T05:36:32;100354.25;;;18.06;100.00
54882;BME280;40775;51.448;4.742;2023-07-24T05:38:59;100363.97;;;18.07;100.00
54882;BME280;40775;51.448;4.742;2023-07-24T05:41:26;100359.59;;;18.04;100.00
54882;BME280;40775;51.448;4.742;2023-07-24T05:43:53;100363.06;;;18.11;100.00
54882;BME280;40775;51.448;4.742;2023-07-24T05:46:20;100385.75;;;19.15;100.00
54882;BME280;40775;51.448;4.742;2023-07-24T05:48:47;100375.00;;;19.95;100.00
54882;BME280;40775;51.448;4.742;2023-07-24T05:51:14;100366.59;;;20.45;100.00
54882;BME280;40775;51.448;4.742;2023-07-24T05:53:41;100346.84;;;20.83;100.00
54882;BME280;40775;51.448;4.742;2023-07-24T05:56:08;100341.63;;;21.08;100.00
54882;BME280;40775;51.448;4.742;2023-07-24T05:58:35;100348.13;;;21.28;100.00
54882;BME280;40775;51.448;4.742;2023-07-24T06:01:02;100347.53;;;21.47;100.00
54882;BME280;40775;51.448;4.742;2023-07-24T06:03:30;100344.47;;;21.59;100.00
54882;BME280;40775;51.448;4.742;2023-07-24T06:05:57;100341.50;;;21.68;100.00
54882;BME280;40775;51.448;4.742;2023-07-24T06:08:24;100341.94;;;21.81;100.00
54882;BME280;40775;51.448;4.742;2023-07-24T06:10:51;100342.59;;;21.87;100.00
54882;BME280;40775;51.448;4.742;2023-07-24T06:13:18;100338.81;;;21.95;100.00
54882;BME280;40775;51.448;4.742;2023-07-24T06:15:50;100335.00;;;22.02;100.00
54882;BME280;40775;51.448;4.742;2023-07-24T06:18:17;100332.09;;;22.09;100.00
54882;BME280;40775;51.448;4.742;2023-07-24T06:20:44;100340.88;;;22.13;100.00
54882;BME280;40775;51.448;4.742;2023-07-24T06:23:11;100330.88;;;22.18;100.00
54882;BME280;40775;51.448;4.742;2023-07-24T06:25:38;100327.25;;;22.20;100.00
54882;BME280;40775;51.448;4.742;2023-07-24T06:28:05;100333.31;;;22.26;100.00
54882;BME280;40775;51.448;4.742;2023-07-24T06:30:32;100310.97;;;22.27;100.00
54882;BME280;40775;51.448;4.742;2023-07-24T06:32:59;100313.44;;;22.33;100.00
54882;BME280;40775;51.448;4.742;2023-07-24T06:35:26;100308.06;;;22.33;100.00
54882;BME280;40775;51.448;4.742;2023-07-24T06:37:53;100306.97;;;22.38;100.00
54882;BME280;40775;51.448;4.742;2023-07-24T06:40:20;100314.94;;;22.40;100.00
54882;BME280;40775;51.448;4.742;2023-07-24T06:42:47;100319.31;;;22.42;100.00
54882;BME280;40775;51.448;4.742;2023-07-24T06:45:14;100307.66;;;22.43;100.00
54882;BME280;40775;51.448;4.742;2023-07-24T06:47:41;100306.69;;;22.46;100.00
54882;BME280;40775;51.448;4.742;2023-07-24T06:50:08;100309.28;;;22.49;100.00
54882;BME280;40775;51.448;4.742;2023-07-24T06:52:36;100310.97;;;22.51;100.00
54882;BME280;40775;51.448;4.742;2023-07-24T06:55:03;100308.22;;;22.53;100.00
54882;BME280;40775;51.448;4.742;2023-07-24T06:57:30;100311.81;;;22.52;100.00
54882;BME280;40775;51.448;4.742;2023-07-24T06:59:57;100312.63;;;22.54;100.00
54882;BME280;40775;51.448;4.742;2023-07-24T07:02:24;100304.56;;;22.56;100.00
54882;BME280;40775;51.448;4.742;2023-07-24T07:04:51;100312.53;;;22.57;100.00
54882;BME280;40775;51.448;4.742;2023-07-24T07:07:18;100309.84;;;22.57;100.00
54882;BME280;40775;51.448;4.742;2023-07-24T07:09:45;100303.56;;;22.58;100.00
54882;BME280;40775;51.448;4.742;2023-07-24T07:12:12;100307.97;;;22.59;100.00
54882;BME280;40775;51.448;4.742;2023-07-24T07:14:39;100304.31;;;22.62;100.00
54882;BME280;40775;51.448;4.742;2023-07-24T07:17:06;100300.66;;;22.64;100.00
54882;BME280;40775;51.448;4.742;2023-07-24T07:19:33;100289.13;;;22.62;100.00
54882;BME280;40775;51.448;4.742;2023-07-24T07:22:00;100305.94;;;22.66;100.00
54882;BME280;40775;51.448;4.742;2023-07-24T07:24:27;100293.63;;;22.62;100.00
54882;BME280;40775;51.448;4.742;2023-07-24T07:26:54;100306.81;;;22.66;100.00
54882;BME280;40775;51.448;4.742;2023-07-24T07:29:21;100312.97;;;22.68;100.00
54882;BME280;40775;51.448;4.742;2023-07-24T07:31:48;100312.91;;;22.70;100.00
54882;BME280;40775;51.448;4.742;2023-07-24T07:34:15;100305.59;;;22.51;100.00
54882;BME280;40775;51.448;4.742;2023-07-24T07:36:42;100309.59;;;22.63;100.00
54882;BME280;40775;51.448;4.742;2023-07-24T07:39:09;100308.56;;;22.67;100.00
54882;BME280;40775;51.448;4.742;2023-07-24T07:41:36;100301.34;;;22.69;100.00
54882;BME280;40775;51.448;4.742;2023-07-24T07:44:03;100295.88;;;22.72;100.00
54882;BME280;40775;51.448;4.742;2023-07-24T07:46:30;100292.56;;;22.66;100.00
54882;BME280;40775;51.448;4.742;2023-07-24T07:48:57;100298.03;;;22.63;100.00
54882;BME280;40775;51.448;4.742;2023-07-24T07:51:24;100302.34;;;22.67;100.00
54882;BME280;40775;51.448;4.742;2023-07-24T07:53:52;100299.59;;;22.68;100.00
54882;BME280;40775;51.448;4.742;2023-07-24T07:56:19;100295.00;;;22.72;100.00
54882;BME280;40775;51.448;4.742;2023-07-24T07:58:46;100304.88;;;22.70;100.00
54882;BME280;40775;51.448;4.742;2023-07-24T08:01:13;100311.00;;;22.73;100.00
54882;BME280;40775;51.448;4.742;2023-07-24T08:03:40;100303.03;;;22.72;100.00
54882;BME280;40775;51.448;4.742;2023-07-24T08:06:08;100295.84;;;22.74;100.00
54882;BME280;40775;51.448;4.742;2023-07-24T08:08:35;100296.66;;;22.76;100.00
54882;BME280;40775;51.448;4.742;2023-07-24T08:11:08;100293.09;;;22.75;100.00
54882;BME280;40775;51.448;4.742;2023-07-24T08:13:35;100294.91;;;22.75;100.00
54882;BME280;40775;51.448;4.742;2023-07-24T08:16:02;100295.84;;;22.74;100.00
54882;BME280;40775;51.448;4.742;2023-07-24T08:18:30;100293.03;;;22.77;100.00
54882;BME280;40775;51.448;4.742;2023-07-24T08:20:58;100290.38;;;22.77;100.00
54882;BME280;40775;51.448;4.742;2023-07-24T08:23:25;100295.72;;;22.77;100.00
54882;BME280;40775;51.448;4.742;2023-07-24T08:25:55;100288.63;;;22.76;100.00
54882;BME280;40775;51.448;4.742;2023-07-24T08:28:22;100290.44;;;22.75;100.00
54882;BME280;40775;51.448;4.742;2023-07-24T08:31:00;100283.22;;;22.77;100.00
54882;BME280;40775;51.448;4.742;2023-07-24T08:33:33;100285.94;;;22.76;100.00
54882;BME280;40775;51.448;4.742;2023-07-24T08:36:08;100285.00;;;22.77;100.00
54882;BME280;40775;51.448;4.742;2023-07-24T08:38:35;100280.53;;;22.77;100.00
54882;BME280;40775;51.448;4.742;2023-07-24T08:41:03;100278.72;;;22.78;100.00
54882;BME280;40775;51.448;4.742;2023-07-24T08:43:31;100280.47;;;22.79;100.00
54882;BME280;40775;51.448;4.742;2023-07-24T08:46:00;100276.06;;;22.78;100.00
54882;BME280;40775;51.448;4.742;2023-07-24T08:48:36;100269.75;;;22.79;100.00
54882;BME280;40775;51.448;4.742;2023-07-24T08:51:09;100266.22;;;22.78;100.00
54882;BME280;40775;51.448;4.742;2023-07-24T08:53:41;100267.97;;;22.79;100.00
54882;BME280;40775;51.448;4.742;2023-07-24T08:56:10;100264.41;;;22.79;100.00
54882;BME280;40775;51.448;4.742;2023-07-24T08:58:39;100254.56;;;22.79;100.00
54882;BME280;40775;51.448;4.742;2023-07-24T09:01:09;100255.44;;;22.80;100.00
54882;BME280;40775;51.448;4.742;2023-07-24T09:03:37;100258.09;;;22.81;100.00
54882;BME280;40775;51.448;4.742;2023-07-24T09:06:05;100246.53;;;22.81;100.00
54882;BME280;40775;51.448;4.742;2023-07-24T09:08:41;100249.19;;;22.81;100.00
54882;BME280;40775;51.448;4.742;2023-07-24T09:11:12;100242.06;;;22.80;100.00
54882;BME280;40775;51.448;4.742;2023-07-24T09:13:42;100239.47;;;22.78;100.00
54882;BME280;40775;51.448;4.742;2023-07-24T09:16:23;100232.28;;;22.79;100.00
54882;BME280;40775;51.448;4.742;2023-07-24T09:18:52;100237.59;;;22.80;100.00
54882;BME280;40775;51.448;4.742;2023-07-24T09:21:32;100231.44;;;22.78;100.00
54882;BME280;40775;51.448;4.742;2023-07-24T09:24:13;100238.53;;;22.79;100.00
54882;BME280;40775;51.448;4.742;2023-07-24T09:26:53;100242.06;;;22.80;100.00
54882;BME280;40775;51.448;4.742;2023-07-24T09:29:31;100246.56;;;22.79;100.00
54882;BME280;40775;51.448;4.742;2023-07-24T09:31:59;100245.63;;;22.80;100.00
54882;BME280;40775;51.448;4.742;2023-07-24T09:34:26;100243.84;;;22.81;100.00
54882;BME280;40775;51.448;4.742;2023-07-24T09:36:53;100234.00;;;22.81;100.00
54882;BME280;40775;51.448;4.742;2023-07-24T09:39:25;100233.06;;;22.83;100.00
54882;BME280;40775;51.448;4.742;2023-07-24T09:41:52;100234.38;;;22.71;100.00
54882;BME280;40775;51.448;4.742;2023-07-24T09:44:19;100238.25;;;22.64;100.00
54882;BME280;40775;51.448;4.742;2023-07-24T09:46:46;100233.50;;;22.70;100.00
54882;BME280;40775;51.448;4.742;2023-07-24T09:49:26;100245.09;;;22.71;100.00
54882;BME280;40775;51.448;4.742;2023-07-24T09:51:59;100242.31;;;22.74;100.00
54882;BME280;40775;51.448;4.742;2023-07-24T09:54:32;100239.59;;;22.75;100.00
54882;BME280;40775;51.448;4.742;2023-07-24T09:57:08;100228.81;;;22.77;100.00
54882;BME280;40775;51.448;4.742;2023-07-24T09:59:48;100238.53;;;22.79;100.00
54882;BME280;40775;51.448;4.742;2023-07-24T10:02:17;100230.41;;;22.83;100.00
54882;BME280;40775;51.448;4.742;2023-07-24T10:04:45;100225.97;;;22.81;100.00
54882;BME280;40775;51.448;4.742;2023-07-24T10:07:13;100207.19;;;22.83;100.00
54882;BME280;40775;51.448;4.742;2023-07-24T10:09:43;100209.84;;;22.83;100.00
54882;BME280;40775;51.448;4.742;2023-07-24T10:12:11;100213.34;;;22.85;100.00
54882;BME280;40775;51.448;4.742;2023-07-24T10:14:38;100219.44;;;22.89;100.00
54882;BME280;40775;51.448;4.742;2023-07-24T10:17:05;100217.63;;;22.89;100.00
54882;BME280;40775;51.448;4.742;2023-07-24T10:19:50;100205.44;;;22.82;100.00
54882;BME280;40775;51.448;4.742;2023-07-24T10:22:18;100206.31;;;22.83;100.00
54882;BME280;40775;51.448;4.742;2023-07-24T10:24:47;100203.38;;;22.89;100.00
54882;BME280;40775;51.448;4.742;2023-07-24T10:27:14;100206.81;;;22.92;100.00
54882;BME280;40775;51.448;4.742;2023-07-24T10:29:41;100214.63;;;22.97;100.00
54882;BME280;40775;51.448;4.742;2023-07-24T10:32:18;100225.41;;;22.95;100.00
54882;BME280;40775;51.448;4.742;2023-07-24T10:35:21;100214.16;;;22.87;100.00
54882;BME280;40775;51.448;4.742;2023-07-24T10:37:59;100221.25;;;22.88;100.00
54882;BME280;40775;51.448;4.742;2023-07-24T10:40:27;100222.19;;;22.87;100.00
54882;BME280;40775;51.448;4.742;2023-07-24T10:43:04;100226.59;;;22.88;100.00
54882;BME280;40775;51.448;4.742;2023-07-24T10:45:48;100222.94;;;22.91;100.00
54882;BME280;40775;51.448;4.742;2023-07-24T10:48:21;100230.53;;;23.01;100.00
54882;BME280;40775;51.448;4.742;2023-07-24T10:50:50;100236.38;;;23.11;100.00
54882;BME280;40775;51.448;4.742;2023-07-24T10:53:22;100231.16;;;23.08;100.00
54882;BME280;40775;51.448;4.742;2023-07-24T10:55:51;100241.06;;;23.06;100.00
54882;BME280;40775;51.448;4.742;2023-07-24T10:58:18;100244.53;;;23.08;100.00
54882;BME280;40775;51.448;4.742;2023-07-24T11:00:46;100235.00;;;23.23;100.00
54882;BME280;40775;51.448;4.742;2023-07-24T11:03:15;100230.50;;;23.23;100.00
54882;BME280;40775;51.448;4.742;2023-07-24T11:05:43;100237.31;;;23.10;100.00
54882;BME280;40775;51.448;4.742;2023-07-24T11:08:16;100233.03;;;23.48;100.00
54882;BME280;40775;51.448;4.742;2023-07-24T11:10:52;100237.81;;;23.20;100.00
54882;BME280;40775;51.448;4.742;2023-07-24T11:13:24;100251.03;;;23.44;100.00
54882;BME280;40775;51.448;4.742;2023-07-24T11:15:52;100237.81;;;23.20;100.00
54882;BME280;40775;51.448;4.742;2023-07-24T11:18:21;100241.53;;;23.16;100.00
54882;BME280;40775;51.448;4.742;2023-07-24T11:20:54;100246.22;;;23.10;100.00
54882;BME280;40775;51.448;4.742;2023-07-24T11:23:23;100263.97;;;23.57;100.00
54882;BME280;40775;51.448;4.742;2023-07-24T11:25:52;100270.47;;;23.50;100.00
54882;BME280;40775;51.448;4.742;2023-07-24T11:28:20;100267.78;;;23.50;100.00
54882;BME280;40775;51.448;4.742;2023-07-24T11:30:47;100256.19;;;23.29;100.00
54882;BME280;40775;51.448;4.742;2023-07-24T11:33:16;100258.47;;;23.16;100.00
54882;BME280;40775;51.448;4.742;2023-07-24T11:35:45;100272.66;;;23.40;100.00
54882;BME280;40775;51.448;4.742;2023-07-24T11:38:13;100258.97;;;23.26;100.00
54882;BME280;40775;51.448;4.742;2023-07-24T11:40:44;100248.50;;;23.20;100.00
54882;BME280;40775;51.448;4.742;2023-07-24T11:43:21;100256.47;;;23.43;100.00
54882;BME280;40775;51.448;4.742;2023-07-24T11:45:50;100248.50;;;23.20;100.00
54882;BME280;40775;51.448;4.742;2023-07-24T11:48:22;100269.34;;;23.55;100.00
54882;BME280;40775;51.448;4.742;2023-07-24T11:50:56;100259.28;;;23.62;100.00
54882;BME280;40775;51.448;4.742;2023-07-24T11:53:30;100229.78;;;23.82;100.00
54882;BME280;40775;51.448;4.742;2023-07-24T11:55:59;100243.75;;;23.48;100.00
54882;BME280;40775;51.448;4.742;2023-07-24T11:58:29;100240.13;;;23.71;100.00
54882;BME280;40775;51.448;4.742;2023-07-24T12:00:57;100250.63;;;23.76;100.00
54882;BME280;40775;51.448;4.742;2023-07-24T12:03:28;100236.16;;;24.00;100.00
54882;BME280;40775;51.448;4.742;2023-07-24T12:05:56;100186.09;;;24.40;100.00
54882;BME280;40775;51.448;4.742;2023-07-24T12:08:34;100205.28;;;23.91;100.00
54882;BME280;40775;51.448;4.742;2023-07-24T12:11:02;100224.44;;;23.62;100.00
54882;BME280;40775;51.448;4.742;2023-07-24T12:13:29;100227.41;;;23.54;100.00
54882;BME280;40775;51.448;4.742;2023-07-24T12:15:58;100219.91;;;23.42;100.00
54882;BME280;40775;51.448;4.742;2023-07-24T12:18:25;100218.44;;;23.35;100.00
54882;BME280;40775;51.448;4.742;2023-07-24T12:20:52;100218.72;;;23.27;100.00
54882;BME280;40775;51.448;4.742;2023-07-24T12:23:19;100220.59;;;23.25;100.00
54882;BME280;40775;51.448;4.742;2023-07-24T12:25:47;100256.00;;;23.96;100.00
54882;BME280;40775;51.448;4.742;2023-07-24T12:28:14;100249.19;;;23.89;100.00
54882;BME280;40775;51.448;4.742;2023-07-24T12:30:41;100227.50;;;23.93;100.00
54882;BME280;40775;51.448;4.742;2023-07-24T12:33:08;100229.59;;;23.87;100.00
54882;BME280;40775;51.448;4.742;2023-07-24T12:35:35;100241.59;;;23.98;100.00
54882;BME280;40775;51.448;4.742;2023-07-24T12:38:02;100222.56;;;24.23;100.00
54882;BME280;40775;51.448;4.742;2023-07-24T12:40:29;100214.50;;;24.44;100.00
54882;BME280;40775;51.448;4.742;2023-07-24T12:42:56;100207.03;;;24.69;100.00
54882;BME280;40775;51.448;4.742;2023-07-24T12:45:22;100198.69;;;24.75;100.00
54882;BME280;40775;51.448;4.742;2023-07-24T12:47:51;100209.00;;;24.47;100.00
54882;BME280;40775;51.448;4.742;2023-07-24T12:50:18;100213.97;;;24.35;100.00